sensor_id;sensor_type;location;lat;lon;timestamp;pressure;altitude;pressure_sealevel;temperature;humidity
54556;BME280;57291;37.520;15.106;2023-03-23T00:01:27;101275.31;;;13.09;75.78
54556;BME280;57291;37.520;15.106;2023-03-23T00:03:57;101276.44;;;13.08;75.72
54556;BME280;57291;37.520;15.106;2023-03-23T00:06:25;101276.44;;;13.08;75.56
54556;BME280;57291;37.520;15.106;2023-03-23T00:08:54;101273.19;;;13.06;75.25
54556;BME280;57291;37.520;15.106;2023-03-23T00:11:27;101271.88;;;13.03;75.42
54556;BME280;57291;37.520;15.106;2023-03-23T00:13:58;101276.03;;;13.01;75.63
54556;BME280;57291;37.520;15.106;2023-03-23T00:16:31;101271.69;;;13.00;75.48
54556;BME280;57291;37.520;15.106;2023-03-23T00:19:03;101279.03;;;12.99;75.52
54556;BME280;57291;37.520;15.106;2023-03-23T00:21:31;101272.50;;;13.00;75.53
54556;BME280;57291;37.520;15.106;2023-03-23T00:24:06;101266.22;;;13.00;75.17
54556;BME280;57291;37.520;15.106;2023-03-23T00:26:38;101266.22;;;13.00;74.98
54556;BME280;57291;37.520;15.106;2023-03-23T00:29:20;101266.81;;;12.97;74.81
54556;BME280;57291;37.520;15.106;2023-03-23T00:31:50;101261.94;;;12.94;74.69
54556;BME280;57291;37.520;15.106;2023-03-23T00:34:22;101264.16;;;12.91;74.33
54556;BME280;57291;37.520;15.106;2023-03-23T00:36:52;101260.91;;;12.89;74.05
54556;BME280;57291;37.520;15.106;2023-03-23T00:39:25;101260.41;;;12.87;74.02
54556;BME280;57291;37.520;15.106;2023-03-23T00:45:14;101244.63;;;12.84;74.12
54556;BME280;57291;37.520;15.106;2023-03-23T00:47:40;101241.91;;;12.84;74.20
54556;BME280;57291;37.520;15.106;2023-03-23T00:50:12;101247.38;;;12.84;74.54
54556;BME280;57291;37.520;15.106;2023-03-23T00:52:40;101241.91;;;12.84;74.47
54556;BME280;57291;37.520;15.106;2023-03-23T00:55:06;101245.66;;;12.88;74.20
54556;BME280;57291;37.520;15.106;2023-03-23T00:57:32;101238.28;;;12.89;73.96
54556;BME280;57291;37.520;15.106;2023-03-23T00:59:58;101246.19;;;12.90;73.91
54556;BME280;57291;37.520;15.106;2023-03-23T01:02:24;101227.97;;;12.86;74.00
54556;BME280;57291;37.520;15.106;2023-03-23T01:04:51;101235.56;;;12.89;74.12
54556;BME280;57291;37.520;15.106;2023-03-23T01:07:21;101225.75;;;12.88;74.23
54556;BME280;57291;37.520;15.106;2023-03-23T01:09:49;101222.50;;;12.86;74.11
54556;BME280;57291;37.520;15.106;2023-03-23T01:15:59;101219.56;;;12.82;74.92
54556;BME280;57291;37.520;15.106;2023-03-23T01:18:25;101210.78;;;12.85;74.77
54556;BME280;57291;37.520;15.106;2023-03-23T01:20:53;101218.97;;;12.85;74.91
54556;BME280;57291;37.520;15.106;2023-03-23T01:23:19;101222.50;;;12.86;74.84
54556;BME280;57291;37.520;15.106;2023-03-23T01:25:45;101213.50;;;12.85;74.83
54556;BME280;57291;37.520;15.106;2023-03-23T01:28:11;101216.75;;;12.87;74.68
54556;BME280;57291;37.520;15.106;2023-03-23T01:30:37;101209.66;;;12.86;74.68
54556;BME280;57291;37.520;15.106;2023-03-23T01:33:03;101210.28;;;12.83;74.05
54556;BME280;57291;37.520;15.106;2023-03-23T01:35:29;101214.09;;;12.82;73.74
54556;BME280;57291;37.520;15.106;2023-03-23T01:37:56;101208.66;;;12.82;73.85
54556;BME280;57291;37.520;15.106;2023-03-23T01:40:22;101207.31;;;12.80;73.61
54556;BME280;57291;37.520;15.106;2023-03-23T01:42:48;101206.53;;;12.79;73.85
54556;BME280;57291;37.520;15.106;2023-03-23T01:47:52;101206.84;;;12.78;73.62
54556;BME280;57291;37.520;15.106;2023-03-23T01:50:23;101204.91;;;12.78;73.53
54556;BME280;57291;37.520;15.106;2023-03-23T01:52:53;101206.53;;;12.79;73.44
54556;BME280;57291;37.520;15.106;2023-03-23T01:55:22;101192.38;;;12.77;73.67
54556;BME280;57291;37.520;15.106;2023-03-23T01:57:50;101193.69;;;12.80;73.90
54556;BME280;57291;37.520;15.106;2023-03-23T02:00:17;101192.59;;;12.81;74.07
54556;BME280;57291;37.520;15.106;2023-03-23T02:02:50;101191.19;;;12.83;74.53
54556;BME280;57291;37.520;15.106;2023-03-23T02:05:26;101187.34;;;12.84;74.39
54556;BME280;57291;37.520;15.106;2023-03-23T02:07:58;101192.81;;;12.84;74.62
54556;BME280;57291;37.520;15.106;2023-03-23T02:10:32;101192.88;;;12.79;74.57
54556;BME280;57291;37.520;15.106;2023-03-23T02:13:00;101193.00;;;12.74;74.77
54556;BME280;57291;37.520;15.106;2023-03-23T02:18:30;101189.59;;;12.63;75.58
54556;BME280;57291;37.520;15.106;2023-03-23T02:21:19;101197.88;;;12.58;75.03
54556;BME280;57291;37.520;15.106;2023-03-23T02:30:09;101190.72;;;12.43;75.18
54556;BME280;57291;37.520;15.106;2023-03-23T02:35:36;101196.03;;;12.54;78.80
54556;BME280;57291;37.520;15.106;2023-03-23T02:38:20;101195.75;;;12.55;80.71
54556;BME280;57291;37.520;15.106;2023-03-23T02:40:49;101190.13;;;12.47;80.76
54556;BME280;57291;37.520;15.106;2023-03-23T02:43:20;101189.44;;;12.41;81.60
54556;BME280;57291;37.520;15.106;2023-03-23T02:45:50;101190.28;;;12.36;82.10
54556;BME280;57291;37.520;15.106;2023-03-23T02:48:20;101199.88;;;12.34;82.43
54556;BME280;57291;37.520;15.106;2023-03-23T02:50:51;101198.03;;;12.29;82.37
54556;BME280;57291;37.520;15.106;2023-03-23T02:53:23;101199.16;;;12.28;82.87
54556;BME280;57291;37.520;15.106;2023-03-23T02:55:53;101191.56;;;12.25;82.81
54556;BME280;57291;37.520;15.106;2023-03-23T02:58:24;101201.94;;;12.23;82.94
54556;BME280;57291;37.520;15.106;2023-03-23T03:00:51;101201.13;;;12.23;82.97
54556;BME280;57291;37.520;15.106;2023-03-23T03:03:23;101199.22;;;12.23;82.37
54556;BME280;57291;37.520;15.106;2023-03-23T03:06:45;101196.00;;;12.21;82.07
54556;BME280;57291;37.520;15.106;2023-03-23T03:08:59;101200.38;;;12.17;82.04
54556;BME280;57291;37.520;15.106;2023-03-23T03:11:27;101201.81;;;12.14;81.75
54556;BME280;57291;37.520;15.106;2023-03-23T03:16:56;101198.19;;;12.19;80.98
54556;BME280;57291;37.520;15.106;2023-03-23T03:19:29;101200.09;;;12.18;80.41
54556;BME280;57291;37.520;15.106;2023-03-23T03:21:58;101199.81;;;12.20;79.91
54556;BME280;57291;37.520;15.106;2023-03-23T03:24:37;101207.97;;;12.20;80.07
54556;BME280;57291;37.520;15.106;2023-03-23T03:27:11;101203.34;;;12.20;79.71
54556;BME280;57291;37.520;15.106;2023-03-23T03:29:51;101192.22;;;12.17;79.48
54556;BME280;57291;37.520;15.106;2023-03-23T03:32:23;101203.09;;;12.17;79.65
54556;BME280;57291;37.520;15.106;2023-03-23T03:34:52;101196.84;;;12.16;79.53
54556;BME280;57291;37.520;15.106;2023-03-23T03:37:19;101206.66;;;12.17;79.19
54556;BME280;57291;37.520;15.106;2023-03-23T03:39:49;101204.22;;;12.16;78.84
54556;BME280;57291;37.520;15.106;2023-03-23T03:42:16;101210.25;;;12.13;78.83
54556;BME280;57291;37.520;15.106;2023-03-23T03:44:42;101216.28;;;12.10;78.74
54556;BME280;57291;37.520;15.106;2023-03-23T03:47:08;101214.69;;;12.09;78.86
54556;BME280;57291;37.520;15.106;2023-03-23T03:49:35;101210.94;;;12.05;78.69
54556;BME280;57291;37.520;15.106;2023-03-23T03:52:01;101207.16;;;12.01;78.70
54556;BME280;57291;37.520;15.106;2023-03-23T03:54:38;101208.25;;;12.00;78.39
54556;BME280;57291;37.520;15.106;2023-03-23T03:57:06;101207.72;;;11.97;78.42
54556;BME280;57291;37.520;15.106;2023-03-23T03:59:48;101212.69;;;11.95;78.52
54556;BME280;57291;37.520;15.106;2023-03-23T04:02:34;101208.34;;;11.94;78.15
54556;BME280;57291;37.520;15.106;2023-03-23T04:05:01;101198.53;;;11.93;77.87
54556;BME280;57291;37.520;15.106;2023-03-23T04:07:31;101199.34;;;11.94;77.51
54556;BME280;57291;37.520;15.106;2023-03-23T04:09:57;101197.19;;;11.91;77.62
54556;BME280;57291;37.520;15.106;2023-03-23T04:12:23;101203.19;;;11.93;77.13
54556;BME280;57291;37.520;15.106;2023-03-23T04:14:55;101200.66;;;11.96;76.09
54556;BME280;57291;37.520;15.106;2023-03-23T04:17:26;101192.81;;;11.95;76.01
54556;BME280;57291;37.520;15.106;2023-03-23T04:19:53;101198.84;;;11.92;75.99
54556;BME280;57291;37.520;15.106;2023-03-23T04:22:24;101198.31;;;11.90;76.31
54556;BME280;57291;37.520;15.106;2023-03-23T04:25:00;101195.88;;;11.88;76.07
54556;BME280;57291;37.520;15.106;2023-03-23T04:27:29;101199.41;;;11.89;76.05
54556;BME280;57291;37.520;15.106;2023-03-23T04:29:58;101198.63;;;11.88;75.80
54556;BME280;57291;37.520;15.106;2023-03-23T04:32:40;101194.25;;;11.87;75.66
54556;BME280;57291;37.520;15.106;2023-03-23T04:35:13;101195.38;;;11.86;75.72
54556;BME280;57291;37.520;15.106;2023-03-23T04:37:48;101206.25;;;11.86;75.55
54556;BME280;57291;37.520;15.106;2023-03-23T04:40:17;101200.28;;;11.84;75.16
54556;BME280;57291;37.520;15.106;2023-03-23T04:42:53;101198.63;;;11.88;74.89
54556;BME280;57291;37.520;15.106;2023-03-23T04:45:53;101199.66;;;11.92;74.22
54556;BME280;57291;37.520;15.106;2023-03-23T04:48:24;101196.38;;;11.90;73.77
54556;BME280;57291;37.520;15.106;2023-03-23T04:51:02;101201.56;;;11.92;73.71
54556;BME280;57291;37.520;15.106;2023-03-23T04:53:30;101205.09;;;11.92;73.45
54556;BME280;57291;37.520;15.106;2023-03-23T04:55:57;101199.66;;;11.92;73.75
54556;BME280;57291;37.520;15.106;2023-03-23T04:58:25;101203.69;;;11.95;73.42
54556;BME280;57291;37.520;15.106;2023-03-23T05:01:17;101206.66;;;11.99;73.41
54556;BME280;57291;37.520;15.106;2023-03-23T05:03:53;101209.88;;;12.01;73.09
54556;BME280;57291;37.520;15.106;2023-03-23T05:06:20;101213.66;;;12.05;72.81
54556;BME280;57291;37.520;15.106;2023-03-23T05:08:50;101212.53;;;12.06;72.92
54556;BME280;57291;37.520;15.106;2023-03-23T05:11:20;101217.69;;;12.07;72.64
54556;BME280;57291;37.520;15.106;2023-03-23T05:13:47;101214.69;;;12.09;72.81
54556;BME280;57291;37.520;15.106;2023-03-23T05:16:13;101214.09;;;12.12;72.85
54556;BME280;57291;37.520;15.106;2023-03-23T05:18:41;101224.41;;;12.15;72.95
54556;BME280;57291;37.520;15.106;2023-03-23T05:21:10;101223.81;;;12.18;72.92
54556;BME280;57291;37.520;15.106;2023-03-23T05:23:39;101217.78;;;12.21;73.04
54556;BME280;57291;37.520;15.106;2023-03-23T05:26:14;101234.06;;;12.26;72.88
54556;BME280;57291;37.520;15.106;2023-03-23T05:28:40;101225.50;;;12.33;72.65
54556;BME280;57291;37.520;15.106;2023-03-23T05:31:19;101227.06;;;12.39;72.45
54556;BME280;57291;37.520;15.106;2023-03-23T05:33:45;101237.59;;;12.46;72.13
54556;BME280;57291;37.520;15.106;2023-03-23T05:36:36;101232.00;;;12.56;71.71
54556;BME280;57291;37.520;15.106;2023-03-23T05:39:25;101234.28;;;12.67;71.39
54556;BME280;57291;37.520;15.106;2023-03-23T05:42:03;101238.44;;;12.79;71.34
54556;BME280;57291;37.520;15.106;2023-03-23T05:44:41;101242.03;;;12.93;70.88
54556;BME280;57291;37.520;15.106;2023-03-23T05:47:09;101250.47;;;13.10;69.99
54556;BME280;57291;37.520;15.106;2023-03-23T05:49:38;101237.72;;;13.38;70.10
54556;BME280;57291;37.520;15.106;2023-03-23T05:52:08;101239.28;;;13.72;68.87
54556;BME280;57291;37.520;15.106;2023-03-23T05:54:34;101239.78;;;14.24;69.19
54556;BME280;57291;37.520;15.106;2023-03-23T05:57:02;101245.13;;;14.80;66.85
54556;BME280;57291;37.520;15.106;2023-03-23T05:59:38;101245.41;;;15.54;64.40
54556;BME280;57291;37.520;15.106;2023-03-23T06:02:10;101244.31;;;16.12;63.10
54556;BME280;57291;37.520;15.106;2023-03-23T06:04:36;101245.16;;;16.56;60.95
54556;BME280;57291;37.520;15.106;2023-03-23T06:07:20;101254.69;;;16.76;58.64
54556;BME280;57291;37.520;15.106;2023-03-23T06:09:58;101258.81;;;17.17;57.40
54556;BME280;57291;37.520;15.106;2023-03-23T06:12:36;101265.09;;;17.82;56.17
54556;BME280;57291;37.520;15.106;2023-03-23T06:15:05;101256.72;;;18.71;54.53
54556;BME280;57291;37.520;15.106;2023-03-23T06:18:10;101272.41;;;19.70;50.99
54556;BME280;57291;37.520;15.106;2023-03-23T06:20:58;101267.44;;;20.37;48.98
54556;BME280;57291;37.520;15.106;2023-03-23T06:23:39;101271.34;;;21.04;47.01
54556;BME280;57291;37.520;15.106;2023-03-23T06:26:07;101277.78;;;21.52;45.70
54556;BME280;57291;37.520;15.106;2023-03-23T06:28:36;101277.56;;;22.09;44.29
54556;BME280;57291;37.520;15.106;2023-03-23T06:31:05;101272.63;;;22.73;42.68
54556;BME280;57291;37.520;15.106;2023-03-23T06:33:34;101277.44;;;22.76;40.23
54556;BME280;57291;37.520;15.106;2023-03-23T06:36:19;101282.44;;;23.51;41.95
54556;BME280;57291;37.520;15.106;2023-03-23T06:38:52;101281.47;;;24.13;39.98
54556;BME280;57291;37.520;15.106;2023-03-23T06:41:26;101287.44;;;23.65;40.76
54556;BME280;57291;37.520;15.106;2023-03-23T06:43:52;101294.56;;;22.62;41.52
54556;BME280;57291;37.520;15.106;2023-03-23T06:46:26;101289.78;;;22.98;41.32
54556;BME280;57291;37.520;15.106;2023-03-23T06:48:52;101309.84;;;22.36;43.10
54556;BME280;57291;37.520;15.106;2023-03-23T06:51:24;101298.47;;;22.96;41.33
54556;BME280;57291;37.520;15.106;2023-03-23T06:53:54;101292.94;;;23.61;41.10
54556;BME280;57291;37.520;15.106;2023-03-23T06:56:21;101302.00;;;23.58;41.35
54556;BME280;57291;37.520;15.106;2023-03-23T06:58:47;101305.91;;;23.77;40.16
54556;BME280;57291;37.520;15.106;2023-03-23T07:01:14;101298.56;;;24.41;39.20
54556;BME280;57291;37.520;15.106;2023-03-23T07:03:49;101295.59;;;23.54;40.61
54556;BME280;57291;37.520;15.106;2023-03-23T07:06:21;101312.94;;;23.71;41.08
54556;BME280;57291;37.520;15.106;2023-03-23T07:08:53;101322.16;;;23.78;41.65
54556;BME280;57291;37.520;15.106;2023-03-23T07:11:26;101318.00;;;24.41;39.96
54556;BME280;57291;37.520;15.106;2023-03-23T07:13:54;101321.94;;;24.67;40.12
54556;BME280;57291;37.520;15.106;2023-03-23T07:16:20;101324.31;;;24.65;39.80
54556;BME280;57291;37.520;15.106;2023-03-23T07:18:46;101314.03;;;24.69;38.83
54556;BME280;57291;37.520;15.106;2023-03-23T07:21:13;101315.34;;;24.78;38.85
54556;BME280;57291;37.520;15.106;2023-03-23T07:23:40;101311.53;;;24.07;41.41
54556;BME280;57291;37.520;15.106;2023-03-23T07:26:09;101314.22;;;23.77;41.34
54556;BME280;57291;37.520;15.106;2023-03-23T07:28:44;101317.31;;;23.29;43.11
54556;BME280;57291;37.520;15.106;2023-03-23T07:31:41;101320.56;;;24.27;41.31
54556;BME280;57291;37.520;15.106;2023-03-23T07:34:09;101313.66;;;23.68;41.93
54556;BME280;57291;37.520;15.106;2023-03-23T07:36:55;101323.91;;;23.86;41.44
54556;BME280;57291;37.520;15.106;2023-03-23T07:39:24;101318.91;;;23.96;42.03
54556;BME280;57291;37.520;15.106;2023-03-23T07:41:53;101318.09;;;24.22;41.09
54556;BME280;57291;37.520;15.106;2023-03-23T07:44:34;101323.63;;;23.95;40.60
54556;BME280;57291;37.520;15.106;2023-03-23T07:47:08;101317.78;;;23.54;40.96
54556;BME280;57291;37.520;15.106;2023-03-23T07:49:34;101327.38;;;23.37;41.65
54556;BME280;57291;37.520;15.106;2023-03-23T07:52:19;101329.69;;;22.07;45.44
54556;BME280;57291;37.520;15.106;2023-03-23T07:54:46;101332.94;;;22.79;43.50
54556;BME280;57291;37.520;15.106;2023-03-23T07:57:38;101329.75;;;22.42;44.78
54556;BME280;57291;37.520;15.106;2023-03-23T08:00:07;101340.59;;;21.99;45.24
54556;BME280;57291;37.520;15.106;2023-03-23T08:02:55;101339.50;;;21.57;46.30
54556;BME280;57291;37.520;15.106;2023-03-23T08:05:33;101339.50;;;21.28;47.53
54556;BME280;57291;37.520;15.106;2023-03-23T08:08:15;101344.44;;;21.63;46.47
54556;BME280;57291;37.520;15.106;2023-03-23T08:11:00;101342.19;;;21.25;47.09
54556;BME280;57291;37.520;15.106;2023-03-23T08:13:47;101348.84;;;20.68;48.57
54556;BME280;57291;37.520;15.106;2023-03-23T08:16:38;101354.72;;;19.92;50.54
54556;BME280;57291;37.520;15.106;2023-03-23T08:19:16;101345.31;;;19.48;51.30
54556;BME280;57291;37.520;15.106;2023-03-23T08:21:52;101354.38;;;18.94;53.60
54556;BME280;57291;37.520;15.106;2023-03-23T08:24:39;101362.28;;;18.24;56.05
54556;BME280;57291;37.520;15.106;2023-03-23T08:27:24;101360.84;;;18.48;56.47
54556;BME280;57291;37.520;15.106;2023-03-23T08:30:07;101363.56;;;17.89;58.41
54556;BME280;57291;37.520;15.106;2023-03-23T08:32:46;101370.34;;;18.00;58.33
54556;BME280;57291;37.520;15.106;2023-03-23T08:35:33;101364.75;;;17.62;60.71
54556;BME280;57291;37.520;15.106;2023-03-23T08:38:27;101367.91;;;17.90;59.78
54556;BME280;57291;37.520;15.106;2023-03-23T08:41:25;101369.41;;;17.87;60.90
54556;BME280;57291;37.520;15.106;2023-03-23T08:44:06;101365.72;;;18.13;60.30
54556;BME280;57291;37.520;15.106;2023-03-23T08:47:03;101366.19;;;18.23;59.68
54556;BME280;57291;37.520;15.106;2023-03-23T08:49:59;101365.84;;;18.25;60.89
54556;BME280;57291;37.520;15.106;2023-03-23T08:52:42;101371.16;;;18.30;61.99
54556;BME280;57291;37.520;15.106;2023-03-23T08:55:28;101364.63;;;18.05;61.82
54556;BME280;57291;37.520;15.106;2023-03-23T08:58:21;101367.13;;;17.89;63.20
54556;BME280;57291;37.520;15.106;2023-03-23T09:01:16;101366.34;;;17.80;64.60
54556;BME280;57291;37.520;15.106;2023-03-23T09:03:42;101366.66;;;17.70;64.77
54556;BME280;57291;37.520;15.106;2023-03-23T09:06:31;101364.13;;;17.56;64.62
54556;BME280;57291;37.520;15.106;2023-03-23T09:08:59;101373.94;;;17.74;64.09
54556;BME280;57291;37.520;15.106;2023-03-23T09:11:26;101371.56;;;17.55;65.44
54556;BME280;57291;37.520;15.106;2023-03-23T09:13:52;101368.16;;;17.58;64.08
54556;BME280;57291;37.520;15.106;2023-03-23T09:16:18;101374.19;;;17.34;66.10
54556;BME280;57291;37.520;15.106;2023-03-23T09:18:44;101361.09;;;17.23;68.03
54556;BME280;57291;37.520;15.106;2023-03-23T09:21:10;101365.59;;;17.36;65.29
54556;BME280;57291;37.520;15.106;2023-03-23T09:23:36;101365.78;;;17.14;66.85
54556;BME280;57291;37.520;15.106;2023-03-23T09:26:02;101367.06;;;17.07;67.12
54556;BME280;57291;37.520;15.106;2023-03-23T09:28:28;101375.00;;;17.18;67.25
54556;BME280;57291;37.520;15.106;2023-03-23T09:30:55;101368.22;;;17.06;68.11
54556;BME280;57291;37.520;15.106;2023-03-23T09:33:25;101371.78;;;16.90;68.05
54556;BME280;57291;37.520;15.106;2023-03-23T09:35:51;101385.34;;;16.86;68.69
54556;BME280;57291;37.520;15.106;2023-03-23T09:38:17;101380.25;;;16.53;68.28
54556;BME280;57291;37.520;15.106;2023-03-23T09:41:01;101377.41;;;16.76;70.56
54556;BME280;57291;37.520;15.106;2023-03-23T09:48:55;101393.25;;;16.96;69.86
54556;BME280;57291;37.520;15.106;2023-03-23T09:51:49;101397.13;;;17.30;70.17
54556;BME280;57291;37.520;15.106;2023-03-23T09:54:43;101397.88;;;17.74;68.78
54556;BME280;57291;37.520;15.106;2023-03-23T09:57:32;101395.47;;;17.64;68.05
54556;BME280;57291;37.520;15.106;2023-03-23T10:00:14;101398.22;;;17.55;68.59
54556;BME280;57291;37.520;15.106;2023-03-23T10:07:59;101391.09;;;17.63;68.27
54556;BME280;57291;37.520;15.106;2023-03-23T10:10:43;101383.31;;;17.73;66.89
54556;BME280;57291;37.520;15.106;2023-03-23T10:13:19;101390.78;;;17.55;68.56
54556;BME280;57291;37.520;15.106;2023-03-23T10:15:49;101383.66;;;17.63;67.77
54556;BME280;57291;37.520;15.106;2023-03-23T10:18:23;101382.91;;;17.45;68.75
54556;BME280;57291;37.520;15.106;2023-03-23T10:20:55;101388.38;;;17.37;68.39
54556;BME280;57291;37.520;15.106;2023-03-23T10:29:17;101384.19;;;17.48;67.55
54556;BME280;57291;37.520;15.106;2023-03-23T10:34:35;101377.88;;;17.30;69.34
54556;BME280;57291;37.520;15.106;2023-03-23T10:37:16;101381.44;;;17.39;68.43
54556;BME280;57291;37.520;15.106;2023-03-23T10:39:53;101389.22;;;17.02;69.86
54556;BME280;57291;37.520;15.106;2023-03-23T10:42:28;101384.69;;;17.06;70.50
54556;BME280;57291;37.520;15.106;2023-03-23T10:44:55;101372.41;;;17.47;69.49
54556;BME280;57291;37.520;15.106;2023-03-23T10:47:22;101380.69;;;17.94;69.09
54556;BME280;57291;37.520;15.106;2023-03-23T10:52:42;101379.84;;;18.41;66.32
54556;BME280;57291;37.520;15.106;2023-03-23T10:57:39;101376.19;;;18.28;66.21
54556;BME280;57291;37.520;15.106;2023-03-23T11:02:44;101374.38;;;18.32;66.45
54556;BME280;57291;37.520;15.106;2023-03-23T11:05:20;101370.28;;;18.38;66.14
54556;BME280;57291;37.520;15.106;2023-03-23T11:07:51;101371.09;;;18.39;63.86
54556;BME280;57291;37.520;15.106;2023-03-23T11:10:27;101364.59;;;18.43;63.37
54556;BME280;57291;37.520;15.106;2023-03-23T11:12:58;101366.88;;;18.41;64.75
54556;BME280;57291;37.520;15.106;2023-03-23T11:15:30;101373.53;;;18.40;65.25
54556;BME280;57291;37.520;15.106;2023-03-23T11:18:01;101366.31;;;18.57;65.08
54556;BME280;57291;37.520;15.106;2023-03-23T11:20:29;101366.97;;;18.54;65.14
54556;BME280;57291;37.520;15.106;2023-03-23T11:22:59;101362.53;;;18.61;65.31
54556;BME280;57291;37.520;15.106;2023-03-23T11:25:25;101357.81;;;18.41;64.38
54556;BME280;57291;37.520;15.106;2023-03-23T11:27:52;101360.34;;;18.25;65.03
54556;BME280;57291;37.520;15.106;2023-03-23T11:30:22;101349.84;;;18.69;63.42
54556;BME280;57291;37.520;15.106;2023-03-23T11:32:50;101347.75;;;18.74;59.83
54556;BME280;57291;37.520;15.106;2023-03-23T11:35:25;101345.78;;;18.75;56.81
54556;BME280;57291;37.520;15.106;2023-03-23T11:37:57;101332.03;;;18.45;57.07
54556;BME280;57291;37.520;15.106;2023-03-23T11:40:43;101337.69;;;18.49;59.83
54556;BME280;57291;37.520;15.106;2023-03-23T11:43:14;101346.28;;;18.47;61.27
54556;BME280;57291;37.520;15.106;2023-03-23T11:51:12;101353.88;;;17.83;62.31
54556;BME280;57291;37.520;15.106;2023-03-23T11:56:35;101363.31;;;18.11;62.20
54556;BME280;57291;37.520;15.106;2023-03-23T11:59:02;101346.84;;;18.32;55.51
54556;BME280;57291;37.520;15.106;2023-03-23T12:01:50;101343.50;;;18.56;56.96
54556;BME280;57291;37.520;15.106;2023-03-23T12:07:00;101354.72;;;18.13;64.80
54556;BME280;57291;37.520;15.106;2023-03-23T12:12:49;101352.06;;;18.25;61.61
54556;BME280;57291;37.520;15.106;2023-03-23T12:18:02;101355.16;;;17.85;63.49
54556;BME280;57291;37.520;15.106;2023-03-23T12:26:30;101349.69;;;18.44;60.47
54556;BME280;57291;37.520;15.106;2023-03-23T12:32:06;101346.19;;;18.35;59.73
54556;BME280;57291;37.520;15.106;2023-03-23T12:44:05;101328.56;;;18.07;60.87
54556;BME280;57291;37.520;15.106;2023-03-23T12:49:46;101338.69;;;18.15;57.67
54556;BME280;57291;37.520;15.106;2023-03-23T12:52:28;101331.63;;;18.35;61.94
54556;BME280;57291;37.520;15.106;2023-03-23T12:58:02;101323.22;;;18.82;54.21
54556;BME280;57291;37.520;15.106;2023-03-23T13:05:43;101314.41;;;18.88;54.49
54556;BME280;57291;37.520;15.106;2023-03-23T13:08:21;101317.81;;;18.73;55.53
54556;BME280;57291;37.520;15.106;2023-03-23T13:10:50;101313.03;;;18.82;57.26
54556;BME280;57291;37.520;15.106;2023-03-23T13:13:25;101317.41;;;18.83;59.12
54556;BME280;57291;37.520;15.106;2023-03-23T13:16:08;101318.72;;;18.77;58.55
54556;BME280;57291;37.520;15.106;2023-03-23T13:18:53;101317.59;;;18.78;57.94
54556;BME280;57291;37.520;15.106;2023-03-23T13:21:33;101318.13;;;18.92;57.22
54556;BME280;57291;37.520;15.106;2023-03-23T13:24:10;101311.88;;;18.83;56.92
54556;BME280;57291;37.520;15.106;2023-03-23T13:26:40;101319.25;;;18.70;58.01
54556;BME280;57291;37.520;15.106;2023-03-23T13:29:18;101313.31;;;18.39;59.26
54556;BME280;57291;37.520;15.106;2023-03-23T13:31:46;101313.84;;;18.32;59.29
54556;BME280;57291;37.520;15.106;2023-03-23T13:34:24;101316.06;;;18.09;60.06
54556;BME280;57291;37.520;15.106;2023-03-23T13:36:52;101322.22;;;18.06;59.79
54556;BME280;57291;37.520;15.106;2023-03-23T13:39:26;101314.69;;;17.94;59.38
54556;BME280;57291;37.520;15.106;2023-03-23T13:49:58;101312.13;;;18.19;58.47
54556;BME280;57291;37.520;15.106;2023-03-23T13:52:37;101320.84;;;18.30;59.09
54556;BME280;57291;37.520;15.106;2023-03-23T13:57:53;101310.38;;;18.14;59.17
54556;BME280;57291;37.520;15.106;2023-03-23T14:10:43;101307.16;;;17.74;61.90
54556;BME280;57291;37.520;15.106;2023-03-23T14:16:20;101295.75;;;17.46;62.89
54556;BME280;57291;37.520;15.106;2023-03-23T14:18:56;101304.50;;;17.39;63.26
54556;BME280;57291;37.520;15.106;2023-03-23T14:21:35;101301.31;;;17.28;63.54
54556;BME280;57291;37.520;15.106;2023-03-23T14:24:05;101301.47;;;17.23;63.32
54556;BME280;57291;37.520;15.106;2023-03-23T14:26:33;101303.06;;;17.33;63.53
54556;BME280;57291;37.520;15.106;2023-03-23T14:29:01;101302.41;;;17.36;63.45
54556;BME280;57291;37.520;15.106;2023-03-23T14:31:28;101302.75;;;17.26;63.94
54556;BME280;57291;37.520;15.106;2023-03-23T14:33:56;101298.09;;;17.18;64.45
54556;BME280;57291;37.520;15.106;2023-03-23T14:36:28;101301.19;;;16.90;64.82
54556;BME280;57291;37.520;15.106;2023-03-23T14:42:22;101311.06;;;16.82;65.59
54556;BME280;57291;37.520;15.106;2023-03-23T14:44:50;101307.66;;;17.03;65.06
54556;BME280;57291;37.520;15.106;2023-03-23T14:47:20;101308.44;;;17.03;64.96
54556;BME280;57291;37.520;15.106;2023-03-23T14:49:53;101299.91;;;16.96;65.29
54556;BME280;57291;37.520;15.106;2023-03-23T14:52:23;101306.19;;;17.05;65.64
54556;BME280;57291;37.520;15.106;2023-03-23T14:54:50;101301.78;;;17.30;64.69
54556;BME280;57291;37.520;15.106;2023-03-23T14:57:25;101306.25;;;17.44;64.04
54556;BME280;57291;37.520;15.106;2023-03-23T14:59:54;101292.22;;;17.45;63.34
54556;BME280;57291;37.520;15.106;2023-03-23T15:02:28;101297.56;;;17.42;64.67
54556;BME280;57291;37.520;15.106;2023-03-23T15:05:00;101297.13;;;17.31;64.74
54556;BME280;57291;37.520;15.106;2023-03-23T15:07:35;101292.56;;;17.35;64.78
54556;BME280;57291;37.520;15.106;2023-03-23T15:10:09;101295.47;;;17.30;65.36
54556;BME280;57291;37.520;15.106;2023-03-23T15:12:44;101302.13;;;17.29;64.97
54556;BME280;57291;37.520;15.106;2023-03-23T15:15:33;101304.81;;;17.46;64.89
54556;BME280;57291;37.520;15.106;2023-03-23T15:18:02;101298.03;;;17.44;64.72